Time;durP1;ratioP1;P1;durP2;ratioP2;P2;SDS_P1;SDS_P2;PMS_P1;PMS_P2;Temp;Humidity;BMP_temperature;BMP_pressure;BME280_temperature;BME280_humidity;BME280_pressure;Samples;Min_cycle;Max_cycle;Signal;HPM_P1;HPM_P2
2023/04/04 00:01:07;;;;;;;4.50;4.00;;;0.20;1.00;;;;;;5092018;28;20513;-65
2023/04/04 00:03:32;;;;;;;4.85;4.43;;;0.10;1.00;;;;;;5062833;28;20514;-66
2023/04/04 00:05:58;;;;;;;5.53;4.43;;;0.20;1.00;;;;;;5073850;28;20206;-66
2023/04/04 00:08:24;;;;;;;6.10;4.60;;;0.10;1.00;;;;;;5084916;28;20174;-65
2023/04/04 00:10:55;;;;;;;4.43;4.10;;;0.10;1.00;;;;;;5092095;28;20424;-65
2023/04/04 00:13:21;;;;;;;6.35;4.75;;;0.10;1.00;;;;;;5075450;28;20207;-66
2023/04/04 00:15:47;;;;;;;5.30;4.68;;;0.10;1.00;;;;;;5091059;28;20186;-65
2023/04/04 00:18:12;;;;;;;4.47;3.80;;;0.10;1.00;;;;;;5094498;28;20634;-66
2023/04/04 00:20:38;;;;;;;4.80;4.40;;;0.10;1.00;;;;;;5091287;28;20227;-66
2023/04/04 00:23:04;;;;;;;5.80;3.50;;;0.10;1.00;;;;;;5092633;28;20204;-66
2023/04/04 00:25:30;;;;;;;8.10;4.33;;;0.10;1.00;;;;;;5088324;28;20524;-66
2023/04/04 00:27:59;;;;;;;6.20;4.90;;;0.10;1.00;;;;;;5086962;28;20200;-65
2023/04/04 00:30:25;;;;;;;4.97;3.65;;;0.10;1.00;;;;;;5073127;28;20169;-66
2023/04/04 00:32:51;;;;;;;4.43;4.10;;;0.20;1.00;;;;;;5074633;28;20186;-66
2023/04/04 00:35:16;;;;;;;10.37;4.87;;;0.10;1.00;;;;;;5094257;28;20242;-66
2023/04/04 00:37:42;;;;;;;7.47;4.77;;;0.10;1.00;;;;;;5094281;28;20399;-65
2023/04/04 00:40:08;;;;;;;4.37;4.07;;;0.00;1.00;;;;;;5088119;28;20192;-66
2023/04/04 00:42:34;;;;;;;4.70;3.67;;;0.00;1.00;;;;;;5093563;28;20201;-66
2023/04/04 00:45:00;;;;;;;6.37;4.27;;;0.00;1.00;;;;;;5090798;28;20181;-66
2023/04/04 00:47:29;;;;;;;9.53;4.20;;;0.00;1.00;;;;;;5072342;28;20233;-66
2023/04/04 00:49:55;;;;;;;6.68;3.63;;;0.00;1.00;;;;;;5086892;28;20634;-66
2023/04/04 00:52:21;;;;;;;5.83;4.63;;;0.00;1.00;;;;;;5093239;28;20232;-66
2023/04/04 00:54:47;;;;;;;4.50;4.20;;;0.00;1.00;;;;;;5091464;28;20427;-66
2023/04/04 00:57:13;;;;;;;5.97;4.60;;;0.00;1.00;;;;;;5085856;28;20240;-65
2023/04/04 00:59:39;;;;;;;10.13;4.37;;;0.00;1.00;;;;;;5093954;28;20170;-66
2023/04/04 01:02:05;;;;;;;7.40;3.70;;;0.00;1.00;;;;;;5090881;28;20497;-68
2023/04/04 01:04:30;;;;;;;5.60;4.27;;;-0.10;1.00;;;;;;5093818;28;20182;-66
2023/04/04 01:06:56;;;;;;;9.43;4.13;;;-0.10;1.00;;;;;;5090100;28;20492;-66
2023/04/04 01:09:22;;;;;;;7.60;4.90;;;-0.10;1.00;;;;;;5087467;28;20166;-66
2023/04/04 01:11:49;;;;;;;4.57;4.18;;;-0.10;1.00;;;;;;5089702;28;20522;-66
2023/04/04 01:14:15;;;;;;;6.07;4.10;;;-0.10;1.00;;;;;;5091443;28;20182;-65
2023/04/04 01:16:41;;;;;;;7.17;4.40;;;-0.10;1.00;;;;;;5093530;28;20220;-66
2023/04/04 01:19:10;;;;;;;6.30;3.90;;;-0.20;1.00;;;;;;5086138;28;20431;-65
2023/04/04 01:21:37;;;;;;;5.70;4.70;;;-0.20;1.00;;;;;;5085787;28;20427;-66
2023/04/04 01:24:04;;;;;;;4.72;4.32;;;-0.20;1.00;;;;;;5090593;28;20187;-65
2023/04/04 01:26:30;;;;;;;7.50;4.28;;;-0.20;1.00;;;;;;5089985;28;20235;-66
2023/04/04 01:28:57;;;;;;;4.47;3.85;;;-0.20;1.00;;;;;;5085966;28;20212;-65
2023/04/04 01:31:42;;;;;;;6.75;4.65;;;-0.20;1.00;;;;;;5087537;28;20312;-65
2023/04/04 01:34:28;;;;;;;5.75;3.78;;;-0.20;1.00;;;;;;5074125;28;20193;-66
2023/04/04 01:37:05;;;;;;;5.00;3.53;;;-0.20;1.00;;;;;;5091447;28;20176;-66
2023/04/04 01:39:32;;;;;;;4.28;3.97;;;-0.20;1.00;;;;;;5058535;28;20178;-66
2023/04/04 01:42:00;;;;;;;5.20;4.80;;;-0.30;1.00;;;;;;5092105;28;20546;-67
2023/04/04 01:44:26;;;;;;;7.47;3.95;;;-0.30;1.00;;;;;;5090233;28;20186;-66
2023/04/04 01:46:53;;;;;;;4.30;3.90;;;-0.30;1.00;;;;;;5091673;28;20198;-66
2023/04/04 01:49:21;;;;;;;9.45;4.43;;;-0.30;1.00;;;;;;5093137;28;20185;-66
2023/04/04 01:51:47;;;;;;;7.10;4.20;;;-0.30;1.00;;;;;;5060145;28;20201;-67
2023/04/04 01:54:13;;;;;;;10.30;3.85;;;-0.30;1.00;;;;;;5090346;28;20915;-66
2023/04/04 01:56:39;;;;;;;4.10;3.80;;;-0.30;1.00;;;;;;5092970;28;20182;-66
2023/04/04 01:59:06;;;;;;;6.30;3.60;;;-0.30;1.00;;;;;;5091878;28;20200;-66
2023/04/04 02:01:32;;;;;;;7.40;4.40;;;-0.30;1.00;;;;;;5072819;28;20277;-66
2023/04/04 02:03:57;;;;;;;6.82;3.92;;;-0.30;1.00;;;;;;5059077;28;20212;-67
2023/04/04 02:06:23;;;;;;;10.20;4.83;;;-0.30;1.00;;;;;;5077385;28;20194;-66
2023/04/04 02:08:49;;;;;;;4.27;3.70;;;-0.30;1.00;;;;;;5084476;28;20206;-67
2023/04/04 02:11:15;;;;;;;5.93;4.00;;;-0.30;1.00;;;;;;5071910;28;20634;-66
2023/04/04 02:13:43;;;;;;;9.60;3.83;;;-0.30;1.00;;;;;;5074742;28;20253;-66
2023/04/04 02:16:09;;;;;;;4.60;4.20;;;-0.40;1.00;;;;;;5086882;28;20177;-66
2023/04/04 02:18:35;;;;;;;4.10;3.80;;;-0.40;1.00;;;;;;5083455;28;20189;-66
2023/04/04 02:21:01;;;;;;;6.15;3.97;;;-0.30;1.00;;;;;;5073600;28;20193;-65
2023/04/04 02:23:27;;;;;;;4.37;4.00;;;-0.30;1.00;;;;;;5077192;28;21669;-67
2023/04/04 02:25:53;;;;;;;5.63;4.23;;;-0.20;1.00;;;;;;5089596;28;20622;-66
2023/04/04 02:28:18;;;;;;;6.40;4.07;;;-0.20;1.00;;;;;;5086763;28;20220;-66
2023/04/04 02:30:44;;;;;;;4.10;3.73;;;-0.20;1.00;;;;;;5082440;28;20621;-66
2023/04/04 02:33:10;;;;;;;4.10;3.80;;;-0.20;1.00;;;;;;5093455;28;20662;-66
2023/04/04 02:35:36;;;;;;;5.05;3.95;;;-0.20;1.00;;;;;;5096494;28;20162;-66
2023/04/04 02:38:02;;;;;;;3.93;3.63;;;-0.30;1.00;;;;;;5095335;28;20523;-66
2023/04/04 02:40:28;;;;;;;5.17;3.93;;;-0.20;1.00;;;;;;5083821;28;20176;-67
2023/04/04 02:42:53;;;;;;;4.27;3.97;;;-0.20;1.00;;;;;;5075894;28;20178;-66
2023/04/04 02:45:19;;;;;;;4.67;4.30;;;-0.20;1.00;;;;;;5082848;28;20181;-66
2023/04/04 02:47:52;;;;;;;4.95;4.30;;;-0.20;1.00;;;;;;5081177;28;20202;-67
2023/04/04 02:50:18;;;;;;;5.95;3.75;;;-0.20;1.00;;;;;;5086750;28;20169;-66
2023/04/04 02:52:43;;;;;;;7.00;4.67;;;-0.10;1.00;;;;;;5095449;28;20557;-66
2023/04/04 02:55:09;;;;;;;4.53;4.03;;;-0.10;1.00;;;;;;5095011;28;20423;-66
2023/04/04 02:57:35;;;;;;;4.60;4.00;;;-0.10;1.00;;;;;;5096202;28;20715;-66
2023/04/04 03:00:03;;;;;;;3.97;3.60;;;-0.10;1.00;;;;;;5079713;28;20574;-66
2023/04/04 03:02:30;;;;;;;5.68;4.07;;;-0.10;1.00;;;;;;5073877;28;20598;-65
2023/04/04 03:04:56;;;;;;;5.03;4.53;;;-0.10;1.00;;;;;;5075654;28;20166;-66
2023/04/04 03:07:21;;;;;;;4.33;4.03;;;0.00;1.00;;;;;;5074853;28;20689;-66
2023/04/04 03:09:48;;;;;;;4.30;3.90;;;0.00;1.00;;;;;;5084519;28;20174;-66
2023/04/04 03:12:13;;;;;;;7.28;4.35;;;0.00;1.00;;;;;;5087319;28;20194;-66
2023/04/04 03:14:39;;;;;;;5.67;5.03;;;0.00;1.00;;;;;;5095838;28;20549;-66
2023/04/04 03:17:06;;;;;;;4.17;3.60;;;0.00;1.00;;;;;;5084702;28;20221;-66
2023/04/04 03:19:32;;;;;;;5.88;3.70;;;-0.10;1.00;;;;;;5084238;28;20427;-66
2023/04/04 03:21:58;;;;;;;3.87;3.67;;;-0.20;1.00;;;;;;5093534;28;20668;-66
2023/04/04 03:24:24;;;;;;;5.10;4.10;;;-0.20;1.00;;;;;;5094359;28;20223;-66
2023/04/04 03:26:50;;;;;;;3.83;3.53;;;-0.20;1.00;;;;;;5095115;28;20234;-66
2023/04/04 03:29:16;;;;;;;5.20;4.00;;;-0.20;1.00;;;;;;5066436;28;20181;-66
2023/04/04 03:31:41;;;;;;;5.65;4.30;;;-0.20;1.00;;;;;;5073937;28;20199;-66
2023/04/04 03:34:08;;;;;;;4.27;3.87;;;-0.10;1.00;;;;;;5058773;28;20185;-66
2023/04/04 03:36:34;;;;;;;7.47;5.05;;;-0.10;1.00;;;;;;5075260;28;20162;-66
2023/04/04 03:39:00;;;;;;;6.30;5.70;;;-0.10;1.00;;;;;;5085843;28;20712;-66
2023/04/04 03:41:25;;;;;;;7.17;4.67;;;-0.10;1.00;;;;;;5094162;28;20169;-66
2023/04/04 03:43:51;;;;;;;7.93;4.37;;;-0.10;1.00;;;;;;5082238;28;20688;-66
2023/04/04 03:46:17;;;;;;;5.23;3.83;;;-0.10;1.00;;;;;;5088189;28;20201;-66
2023/04/04 03:48:42;;;;;;;4.70;3.70;;;-0.10;1.00;;;;;;5091837;28;20284;-66
2023/04/04 03:51:08;;;;;;;4.73;4.40;;;-0.10;1.00;;;;;;5093076;28;20605;-67
2023/04/04 03:53:35;;;;;;;5.53;4.90;;;-0.10;1.00;;;;;;5094043;28;20198;-66
2023/04/04 03:56:01;;;;;;;4.10;3.75;;;-0.10;1.00;;;;;;5081552;28;20174;-67
2023/04/04 03:58:27;;;;;;;7.67;4.60;;;-0.20;1.00;;;;;;5093457;28;20627;-67
2023/04/04 04:00:53;;;;;;;7.75;4.80;;;-0.20;1.00;;;;;;5076245;28;20182;-67
2023/04/04 04:03:20;;;;;;;19.88;5.03;;;-0.20;1.00;;;;;;5075087;28;20225;-66
2023/04/04 04:05:46;;;;;;;4.80;4.43;;;-0.20;1.00;;;;;;5091934;28;20165;-66
2023/04/04 04:08:12;;;;;;;4.88;4.40;;;-0.20;1.00;;;;;;5093878;28;20186;-66
2023/04/04 04:10:38;;;;;;;6.88;4.85;;;-0.30;1.00;;;;;;5073608;28;20266;-66
2023/04/04 04:13:04;;;;;;;5.17;3.87;;;-0.30;1.00;;;;;;5073879;28;20265;-66
2023/04/04 04:15:29;;;;;;;4.97;3.90;;;-0.30;1.00;;;;;;5077044;28;20444;-66
2023/04/04 04:17:55;;;;;;;4.47;4.10;;;-0.30;1.00;;;;;;5073916;28;20614;-66
2023/04/04 04:20:21;;;;;;;4.00;3.67;;;-0.30;1.00;;;;;;5084745;28;20189;-67
2023/04/04 04:22:48;;;;;;;6.17;4.30;;;-0.30;1.00;;;;;;5076253;28;20193;-66
2023/04/04 04:25:14;;;;;;;8.57;3.47;;;-0.30;1.00;;;;;;5091732;28;20846;-68
2023/04/04 04:27:41;;;;;;;5.38;4.70;;;-0.30;1.00;;;;;;5081098;28;20305;-66
2023/04/04 04:30:07;;;;;;;10.52;5.70;;;-0.30;1.00;;;;;;5063039;28;20538;-66
2023/04/04 04:32:33;;;;;;;4.28;3.95;;;-0.30;1.00;;;;;;5074061;28;20243;-68
2023/04/04 04:34:59;;;;;;;12.87;4.20;;;-0.40;1.00;;;;;;5074111;28;20170;-66
2023/04/04 04:37:25;;;;;;;6.17;3.90;;;-0.40;1.00;;;;;;5092012;28;20181;-66
2023/04/04 04:39:52;;;;;;;4.82;4.40;;;-0.40;1.00;;;;;;5086813;28;20174;-66
2023/04/04 04:42:18;;;;;;;5.30;3.97;;;-0.30;1.00;;;;;;5088303;28;20204;-66
2023/04/04 04:44:43;;;;;;;4.97;4.53;;;-0.30;1.00;;;;;;5092735;28;20580;-66
2023/04/04 04:47:09;;;;;;;4.20;3.90;;;-0.40;1.00;;;;;;5094163;28;20292;-67
2023/04/04 04:49:35;;;;;;;4.57;4.10;;;-0.40;1.00;;;;;;5084149;28;20210;-67
2023/04/04 04:52:01;;;;;;;3.97;3.53;;;-0.30;1.00;;;;;;5074402;28;20212;-66
2023/04/04 04:54:27;;;;;;;7.20;3.70;;;-0.40;1.00;;;;;;5074411;28;20173;-67
2023/04/04 04:56:53;;;;;;;4.07;3.10;;;-0.40;1.00;;;;;;5092785;28;20661;-66
2023/04/04 04:59:19;;;;;;;3.30;3.10;;;-0.50;1.00;;;;;;5086833;28;20530;-66
2023/04/04 05:01:45;;;;;;;3.88;3.55;;;-0.50;1.00;;;;;;5079587;28;20811;-66
2023/04/04 05:04:11;;;;;;;4.38;3.97;;;-0.50;1.00;;;;;;5093579;28;20244;-69
2023/04/04 05:06:39;;;;;;;9.87;6.60;;;-0.50;1.00;;;;;;5082781;28;20277;-68
2023/04/04 05:09:05;;;;;;;7.30;4.95;;;-0.50;1.00;;;;;;5074241;28;20209;-69
2023/04/04 05:11:31;;;;;;;4.90;4.20;;;-0.50;1.00;;;;;;5083822;28;20815;-68
2023/04/04 05:13:57;;;;;;;6.83;3.60;;;-0.50;1.00;;;;;;5090983;28;20174;-68
2023/04/04 05:16:23;;;;;;;3.60;3.25;;;-0.50;1.00;;;;;;5076193;28;20185;-67
2023/04/04 05:18:49;;;;;;;3.30;3.10;;;-0.50;1.00;;;;;;5071827;28;20186;-68
2023/04/04 05:21:15;;;;;;;5.23;4.80;;;-0.50;1.00;;;;;;5054137;28;20174;-68
2023/04/04 05:23:41;;;;;;;10.82;4.63;;;-0.60;1.00;;;;;;5074757;28;20166;-69
2023/04/04 05:26:06;;;;;;;7.60;4.30;;;-0.60;1.00;;;;;;5073402;28;20198;-69
2023/04/04 05:28:33;;;;;;;4.07;3.67;;;-0.50;1.00;;;;;;5073992;28;20243;-69
2023/04/04 05:30:59;;;;;;;8.00;4.20;;;-0.60;1.00;;;;;;5089057;28;20174;-68
2023/04/04 05:33:24;;;;;;;5.03;3.97;;;-0.50;1.00;;;;;;5072038;28;20220;-68
2023/04/04 05:35:50;;;;;;;3.53;3.30;;;-0.50;1.00;;;;;;5086119;28;20169;-68
2023/04/04 05:38:16;;;;;;;4.53;3.80;;;-0.40;1.00;;;;;;5087716;28;20177;-68
2023/04/04 05:40:41;;;;;;;5.57;5.03;;;-0.40;1.00;;;;;;5071447;28;20181;-69
2023/04/04 05:43:08;;;;;;;9.13;5.03;;;-0.40;1.00;;;;;;5072574;28;20186;-69
2023/04/04 05:45:34;;;;;;;12.88;4.40;;;-0.40;1.00;;;;;;5072974;28;20519;-68
2023/04/04 05:47:59;;;;;;;5.30;3.63;;;-0.40;1.00;;;;;;5074856;28;20197;-68
2023/04/04 05:50:25;;;;;;;4.90;4.50;;;-0.40;1.00;;;;;;5080508;28;21140;-68
2023/04/04 05:52:54;;;;;;;4.75;4.35;;;-0.40;1.00;;;;;;5091495;28;20867;-71
2023/04/04 05:55:20;;;;;;;5.40;4.95;;;-0.40;1.00;;;;;;5076484;28;20178;-69
2023/04/04 05:57:50;;;;;;;5.83;5.00;;;-0.40;1.00;;;;;;5074591;28;20203;-66
2023/04/04 06:00:17;;;;;;;5.75;4.45;;;-0.30;1.00;;;;;;5087003;28;20448;-66
2023/04/04 06:02:43;;;;;;;7.53;5.30;;;-0.30;1.00;;;;;;5086138;28;20200;-67
2023/04/04 06:05:10;;;;;;;5.40;4.90;;;-0.20;1.00;;;;;;5080451;28;20174;-65
2023/04/04 06:07:35;;;;;;;6.88;5.60;;;-0.20;1.00;;;;;;5077535;28;20197;-65
2023/04/04 06:10:02;;;;;;;5.53;5.03;;;-0.20;1.00;;;;;;5076930;28;20169;-65
2023/04/04 06:12:28;;;;;;;6.45;5.30;;;-0.20;1.00;;;;;;5089339;28;20201;-66
2023/04/04 06:14:53;;;;;;;10.60;6.70;;;-0.10;1.00;;;;;;5095498;28;20645;-66
2023/04/04 06:17:19;;;;;;;11.50;6.40;;;0.00;1.00;;;;;;5081921;28;20177;-67
2023/04/04 06:19:45;;;;;;;8.80;6.17;;;0.00;1.00;;;;;;5078256;28;20173;-67
2023/04/04 06:22:10;;;;;;;8.33;7.53;;;0.10;1.00;;;;;;5095875;28;20522;-66
2023/04/04 06:24:36;;;;;;;12.77;6.23;;;0.10;1.00;;;;;;5073097;28;20214;-66
2023/04/04 06:27:02;;;;;;;7.43;6.10;;;0.20;1.00;;;;;;5058840;28;20202;-68
2023/04/04 06:29:28;;;;;;;6.70;5.82;;;0.20;1.00;;;;;;5085101;28;20173;-66
2023/04/04 06:31:53;;;;;;;6.93;5.80;;;0.30;1.00;;;;;;5093078;28;20537;-67
2023/04/04 06:34:22;;;;;;;6.83;6.23;;;0.30;1.00;;;;;;5071374;28;20653;-67
2023/04/04 06:36:48;;;;;;;8.80;5.93;;;0.40;1.00;;;;;;5076030;28;20171;-67
2023/04/04 06:39:13;;;;;;;6.50;5.03;;;0.60;1.00;;;;;;5093153;28;20423;-66
2023/04/04 06:41:39;;;;;;;6.17;5.60;;;0.70;1.00;;;;;;5092665;28;20201;-66
2023/04/04 06:44:05;;;;;;;5.80;5.30;;;0.70;1.00;;;;;;5090789;28;20188;-66
2023/04/04 06:46:32;;;;;;;7.97;6.20;;;0.80;1.00;;;;;;5093499;28;20758;-66
2023/04/04 06:48:58;;;;;;;8.30;6.90;;;0.90;1.00;;;;;;5096393;28;20395;-67
2023/04/04 06:51:24;;;;;;;6.47;5.73;;;0.90;1.00;;;;;;5092712;28;20423;-67
2023/04/04 06:53:50;;;;;;;6.83;5.40;;;0.90;1.70;;;;;;5096145;28;20394;-67
2023/04/04 06:56:16;;;;;;;5.10;4.67;;;1.00;5.10;;;;;;5091673;28;20545;-66
2023/04/04 06:58:42;;;;;;;17.33;5.47;;;1.00;7.40;;;;;;5082368;28;20443;-68
2023/04/04 07:01:07;;;;;;;11.23;5.33;;;1.10;13.20;;;;;;5083807;28;20574;-67
2023/04/04 07:03:33;;;;;;;7.10;4.57;;;1.20;16.20;;;;;;5087651;28;20197;-66
2023/04/04 07:06:03;;;;;;;7.53;5.07;;;1.40;21.50;;;;;;5093697;28;20218;-67
2023/04/04 07:08:29;;;;;;;5.83;4.97;;;1.50;25.50;;;;;;5076253;28;20213;-67
2023/04/04 07:10:55;;;;;;;6.87;4.70;;;1.70;20.10;;;;;;5087579;28;20420;-67
2023/04/04 07:13:22;;;;;;;9.83;4.60;;;1.90;9.90;;;;;;5074471;28;20467;-66
2023/04/04 07:15:48;;;;;;;5.97;5.47;;;2.00;8.50;;;;;;5079144;28;20416;-66
2023/04/04 07:18:14;;;;;;;23.47;4.07;;;2.20;6.00;;;;;;5058726;28;20427;-68
2023/04/04 07:20:40;;;;;;;3.80;2.60;;;2.30;1.00;;;;;;5093316;28;20506;-67
2023/04/04 07:23:06;;;;;;;7.13;2.80;;;2.50;1.00;;;;;;5092905;28;20407;-67
2023/04/04 07:25:32;;;;;;;3.40;2.70;;;2.70;1.00;;;;;;5074828;28;20413;-68
2023/04/04 07:27:58;;;;;;;3.90;2.80;;;2.80;1.00;;;;;;5073639;28;20202;-67
2023/04/04 07:30:27;;;;;;;6.20;3.60;;;3.00;1.00;;;;;;5076536;28;20204;-67
2023/04/04 07:32:57;;;;;;;3.87;3.50;;;3.10;1.00;;;;;;5089216;28;20285;-69
2023/04/04 07:35:23;;;;;;;6.97;3.60;;;3.20;1.00;;;;;;5089081;28;20419;-69
2023/04/04 07:37:49;;;;;;;4.47;3.30;;;3.30;1.00;;;;;;5073528;28;20428;-68
2023/04/04 07:40:15;;;;;;;4.00;3.70;;;3.50;1.00;;;;;;5074053;28;20504;-68
2023/04/04 07:42:45;;;;;;;4.30;3.87;;;3.50;1.00;;;;;;5075667;28;20536;-67
2023/04/04 07:45:11;;;;;;;3.00;2.80;;;3.70;1.00;;;;;;5090952;28;20414;-66
2023/04/04 07:47:41;;;;;;;7.50;3.67;;;3.80;1.00;;;;;;5091672;28;20604;-67
2023/04/04 07:50:07;;;;;;;7.23;3.70;;;3.90;1.00;;;;;;5074090;28;20395;-67
2023/04/04 07:52:33;;;;;;;5.40;3.00;;;4.00;1.00;;;;;;5083841;28;20557;-67
2023/04/04 07:54:59;;;;;;;4.00;3.60;;;4.00;1.00;;;;;;5074542;28;20433;-67
2023/04/04 07:57:25;;;;;;;3.33;3.03;;;4.00;1.00;;;;;;5074448;28;20204;-68
2023/04/04 07:59:51;;;;;;;7.00;3.30;;;4.20;1.00;;;;;;5074658;28;20849;-66
2023/04/04 08:02:17;;;;;;;6.37;3.27;;;4.30;1.00;;;;;;5073288;28;20643;-68
2023/04/04 08:04:42;;;;;;;9.47;3.10;;;4.30;1.00;;;;;;5074653;28;20206;-70
2023/04/04 08:07:08;;;;;;;4.50;4.10;;;4.40;1.00;;;;;;5058997;28;20201;-67
2023/04/04 08:09:35;;;;;;;5.17;3.13;;;4.50;1.00;;;;;;5075203;28;20677;-70
2023/04/04 08:12:01;;;;;;;5.80;2.90;;;4.60;1.00;;;;;;5070990;28;20532;-68
2023/04/04 08:14:27;;;;;;;3.00;2.80;;;4.70;1.00;;;;;;5094633;28;20425;-68
2023/04/04 08:16:53;;;;;;;3.27;3.07;;;4.90;1.00;;;;;;5092933;28;20425;-71
2023/04/04 08:19:19;;;;;;;2.60;1.90;;;5.00;1.00;;;;;;5087436;28;21091;-71
2023/04/04 08:21:45;;;;;;;4.50;2.37;;;5.20;1.00;;;;;;5072430;28;20190;-68
2023/04/04 08:24:11;;;;;;;2.27;2.07;;;5.30;1.00;;;;;;5073846;28;20925;-69
2023/04/04 08:26:37;;;;;;;3.07;2.77;;;5.40;1.00;;;;;;5082663;28;20233;-68
2023/04/04 08:29:03;;;;;;;3.53;2.40;;;5.50;1.00;;;;;;5084723;28;20568;-70
2023/04/04 08:31:29;;;;;;;2.47;2.27;;;5.50;1.00;;;;;;5088629;28;20312;-71
2023/04/04 08:33:55;;;;;;;2.80;2.60;;;5.70;1.00;;;;;;5081050;28;20197;-70
2023/04/04 08:36:21;;;;;;;2.50;2.30;;;5.90;1.00;;;;;;5076703;28;20990;-69
2023/04/04 08:38:47;;;;;;;3.73;2.50;;;6.00;1.00;;;;;;5073517;28;20789;-69
2023/04/04 08:41:14;;;;;;;2.43;2.23;;;6.10;1.00;;;;;;5072744;28;20777;-70
2023/04/04 08:43:45;;;;;;;8.63;2.60;;;6.30;1.00;;;;;;5073645;28;20941;-70
2023/04/04 08:46:13;;;;;;;2.30;2.10;;;6.50;1.00;;;;;;5073341;28;20440;-69
2023/04/04 08:48:42;;;;;;;2.27;2.03;;;6.60;1.00;;;;;;5073939;28;20399;-71
2023/04/04 08:51:11;;;;;;;5.00;2.70;;;6.70;1.00;;;;;;5054960;28;20905;-71
2023/04/04 08:53:37;;;;;;;2.40;2.00;;;6.70;1.00;;;;;;5073487;28;20767;-69
2023/04/04 08:56:03;;;;;;;2.30;2.10;;;6.70;1.00;;;;;;5073467;28;20761;-70
2023/04/04 08:58:29;;;;;;;2.40;2.30;;;6.70;1.00;;;;;;5056050;28;20404;-69
2023/04/04 09:00:55;;;;;;;1.90;1.80;;;6.80;1.00;;;;;;5073019;28;20177;-69
2023/04/04 09:03:23;;;;;;;2.20;2.00;;;6.90;1.00;;;;;;5073486;28;20488;-71
2023/04/04 09:05:50;;;;;;;2.40;2.10;;;7.00;1.00;;;;;;5072746;28;20407;-71
2023/04/04 09:08:17;;;;;;;4.03;1.80;;;7.10;1.00;;;;;;5073430;28;20403;-69
2023/04/04 09:10:44;;;;;;;2.23;2.03;;;7.20;1.00;;;;;;5072485;28;20396;-69
2023/04/04 09:13:10;;;;;;;2.17;2.07;;;7.30;99.90;;;;;;5055496;28;20881;-72
2023/04/04 09:15:42;;;;;;;3.40;2.33;;;7.30;99.90;;;;;;5073261;28;20401;-72
2023/04/04 09:18:08;;;;;;;2.90;2.60;;;7.40;99.90;;;;;;5073652;28;20896;-72
2023/04/04 09:20:44;;;;;;;4.60;2.23;;;7.30;99.90;;;;;;5072494;28;20497;-69
2023/04/04 09:23:14;;;;;;;2.43;2.23;;;7.40;99.90;;;;;;5083530;28;20591;-69
2023/04/04 09:25:48;;;;;;;3.20;2.33;;;7.40;99.90;;;;;;5092315;28;20403;-69
2023/04/04 09:28:15;;;;;;;1.90;1.80;;;7.50;99.90;;;;;;5079338;28;20425;-72
2023/04/04 09:30:42;;;;;;;2.43;2.23;;;7.70;99.90;;;;;;5073565;28;20396;-69
2023/04/04 09:33:10;;;;;;;2.03;1.83;;;7.80;99.90;;;;;;5073056;28;20429;-69
2023/04/04 09:35:37;;;;;;;2.00;1.90;;;8.10;99.90;;;;;;5071814;28;20415;-72
2023/04/04 09:38:06;;;;;;;2.40;2.20;;;8.10;99.90;;;;;;5085920;28;20425;-70
2023/04/04 09:40:35;;;;;;;3.20;2.03;;;8.30;99.90;;;;;;5076807;28;20431;-72
2023/04/04 09:43:01;;;;;;;4.43;1.90;;;8.50;99.90;;;;;;5075261;28;20442;-69
2023/04/04 09:45:31;;;;;;;1.70;1.60;;;8.70;99.90;;;;;;5088665;28;20412;-70
2023/04/04 09:47:57;;;;;;;4.43;1.93;;;8.80;99.90;;;;;;5075655;28;20426;-70
2023/04/04 09:50:24;;;;;;;2.50;1.83;;;9.10;99.90;;;;;;5088034;28;20405;-70
2023/04/04 09:52:51;;;;;;;2.77;2.13;;;9.40;99.90;;;;;;5095024;28;20564;-70
2023/04/04 09:55:17;;;;;;;4.37;2.20;;;9.70;99.90;;;;;;5113298;28;20388;-72
2023/04/04 09:57:45;;;;;;;3.33;1.70;;;9.90;99.90;;;;;;5095360;28;20754;-70
2023/04/04 10:00:17;;;;;;;2.40;1.27;;;10.10;99.90;;;;;;5073610;28;20454;-70
2023/04/04 10:02:51;;;;;;;5.77;1.43;;;10.00;99.90;;;;;;5092847;28;20502;-70
2023/04/04 10:05:19;;;;;;;2.00;1.60;;;10.00;99.90;;;;;;5093096;28;20403;-70
2023/04/04 10:07:46;;;;;;;1.63;1.53;;;10.20;99.90;;;;;;5091569;28;20461;-72
2023/04/04 10:10:14;;;;;;;2.80;1.60;;;10.40;99.90;;;;;;5085938;28;20438;-70
2023/04/04 10:12:40;;;;;;;3.43;1.63;;;10.40;99.90;;;;;;5081593;28;20492;-73
2023/04/04 10:15:07;;;;;;;2.80;1.60;;;10.20;99.90;;;;;;5072733;28;20423;-73
2023/04/04 10:17:37;;;;;;;1.90;1.50;;;10.00;99.90;;;;;;5084280;28;20432;-72
2023/04/04 10:20:10;;;;;;;2.13;1.93;;;9.70;99.90;;;;;;5082813;28;20439;-71
2023/04/04 10:22:37;;;;;;;1.57;1.47;;;9.50;99.90;;;;;;5082037;28;20614;-72
2023/04/04 10:25:04;;;;;;;1.50;1.40;;;9.70;99.90;;;;;;5091603;28;20436;-69
2023/04/04 10:27:31;;;;;;;3.60;1.63;;;9.80;99.90;;;;;;5084788;28;20474;-72
2023/04/04 10:29:58;;;;;;;1.77;1.67;;;9.90;99.90;;;;;;5071725;28;20399;-70
2023/04/04 10:32:31;;;;;;;1.60;1.50;;;9.90;99.90;;;;;;5069326;28;20500;-70
2023/04/04 10:35:04;;;;;;;2.47;2.27;;;9.60;99.90;;;;;;5071185;28;20424;-69
2023/04/04 10:37:38;;;;;;;1.50;1.40;;;9.10;99.90;;;;;;5080593;28;20398;-72
2023/04/04 10:40:16;;;;;;;2.17;1.70;;;9.00;99.90;;;;;;5080537;28;20460;-70
2023/04/04 10:42:45;;;;;;;4.23;1.80;;;8.90;99.90;;;;;;5075371;28;20452;-70
2023/04/04 10:45:13;;;;;;;3.17;2.10;;;8.70;99.90;;;;;;5071983;28;20431;-72
2023/04/04 10:47:40;;;;;;;1.87;1.73;;;8.80;99.90;;;;;;5079746;28;20468;-72
2023/04/04 10:50:09;;;;;;;2.83;1.77;;;8.80;99.90;;;;;;5089650;28;20925;-71
2023/04/04 10:52:37;;;;;;;1.80;1.70;;;8.90;99.90;;;;;;5092696;28;20996;-72
2023/04/04 10:55:07;;;;;;;1.80;1.70;;;9.00;99.90;;;;;;5086072;28;20435;-70
2023/04/04 10:57:37;;;;;;;3.90;2.30;;;9.20;99.90;;;;;;5092290;28;20401;-69
2023/04/04 11:00:09;;;;;;;1.93;1.83;;;9.20;99.90;;;;;;5095005;28;20459;-71
2023/04/04 11:02:47;;;;;;;4.60;1.73;;;9.00;99.90;;;;;;5096067;28;20869;-69
2023/04/04 11:05:21;;;;;;;2.40;2.20;;;9.00;99.90;;;;;;5093362;28;20426;-72
2023/04/04 11:07:50;;;;;;;2.30;2.10;;;8.90;99.90;;;;;;5075675;28;20528;-72
2023/04/04 11:10:22;;;;;;;1.90;1.60;;;8.90;99.90;;;;;;5077643;28;20424;-69
2023/04/04 11:12:55;;;;;;;2.40;2.07;;;9.20;99.90;;;;;;5094655;28;20436;-70
2023/04/04 11:15:25;;;;;;;1.70;1.60;;;9.60;99.90;;;;;;5091294;28;20426;-71
2023/04/04 11:18:05;;;;;;;2.87;1.80;;;10.10;99.90;;;;;;5086606;28;20451;-69
2023/04/04 11:20:32;;;;;;;2.17;1.70;;;10.60;99.90;;;;;;5072016;28;20751;-70
2023/04/04 11:23:02;;;;;;;1.97;1.80;;;10.90;99.90;;;;;;5092122;28;20419;-70
2023/04/04 11:25:40;;;;;;;1.77;1.67;;;10.90;99.90;;;;;;5095643;28;20393;-70
2023/04/04 11:28:24;;;;;;;1.50;1.40;;;10.50;99.90;;;;;;5075699;28;20451;-70
2023/04/04 11:31:19;;;;;;;2.07;1.93;;;10.20;99.90;;;;;;5073941;28;20425;-73
2023/04/04 11:34:11;;;;;;;4.93;1.63;;;10.30;99.90;;;;;;5077813;28;20859;-72
2023/04/04 11:36:37;;;;;;;2.70;2.07;;;10.30;99.90;;;;;;5086382;28;20493;-70
2023/04/04 11:39:11;;;;;;;3.60;2.73;;;10.90;99.90;;;;;;5075184;28;20875;-73
2023/04/04 11:42:09;;;;;;;2.80;2.10;;;11.30;99.90;;;;;;5075646;28;20581;-73
2023/04/04 11:44:53;;;;;;;1.90;1.60;;;11.40;99.90;;;;;;5077955;28;20396;-70
2023/04/04 11:47:22;;;;;;;2.87;1.80;;;11.20;99.90;;;;;;5073968;28;20502;-73
2023/04/04 11:49:48;;;;;;;3.93;2.20;;;10.90;99.90;;;;;;5073828;28;20455;-70
2023/04/04 11:52:17;;;;;;;2.00;1.80;;;10.70;99.90;;;;;;5081201;28;20450;-73
2023/04/04 11:54:45;;;;;;;2.40;2.03;;;10.60;99.90;;;;;;5114877;28;20376;-71
2023/04/04 11:57:15;;;;;;;7.80;2.20;;;10.50;99.90;;;;;;5108584;28;20512;-72
2023/04/04 11:59:42;;;;;;;1.97;1.87;;;10.40;99.90;;;;;;5094899;28;20374;-69
2023/04/04 12:02:12;;;;;;;3.20;2.07;;;10.20;99.90;;;;;;5093959;28;20398;-73
2023/04/04 12:04:39;;;;;;;5.60;2.60;;;10.00;99.90;;;;;;5081899;28;20406;-69
2023/04/04 12:07:08;;;;;;;2.20;2.00;;;9.80;99.90;;;;;;5099877;28;20480;-70
2023/04/04 12:09:35;;;;;;;2.23;1.87;;;9.80;99.90;;;;;;5094516;28;20405;-73
2023/04/04 12:12:02;;;;;;;4.00;2.23;;;9.80;99.90;;;;;;5085061;28;20429;-69
2023/04/04 12:14:28;;;;;;;5.63;1.70;;;10.00;99.90;;;;;;5075665;28;20446;-70
2023/04/04 12:16:56;;;;;;;1.90;1.80;;;10.30;99.90;;;;;;5089488;28;20499;-70
2023/04/04 12:19:26;;;;;;;4.20;2.33;;;10.80;99.90;;;;;;5073683;28;20650;-71
2023/04/04 12:21:53;;;;;;;1.83;1.73;;;11.20;99.90;;;;;;5084372;28;20451;-73
2023/04/04 12:24:19;;;;;;;2.30;2.10;;;11.70;99.90;;;;;;5071459;28;20434;-71
2023/04/04 12:26:47;;;;;;;2.37;1.40;;;11.90;99.90;;;;;;5073632;28;20491;-72
2023/04/04 12:29:15;;;;;;;3.73;1.87;;;11.90;99.90;;;;;;5074254;28;20894;-73
2023/04/04 12:31:44;;;;;;;2.50;2.03;;;11.70;99.90;;;;;;5072511;28;20477;-69
2023/04/04 12:34:22;;;;;;;2.67;2.40;;;11.80;99.90;;;;;;5086067;28;20427;-69
2023/04/04 12:36:51;;;;;;;4.93;2.20;;;11.90;99.90;;;;;;5074586;28;20434;-69
2023/04/04 12:39:20;;;;;;;2.00;1.80;;;11.70;99.90;;;;;;5073325;28;20433;-72
2023/04/04 12:42:02;;;;;;;2.27;2.17;;;11.60;99.90;;;;;;5079588;28;20443;-69
2023/04/04 12:44:36;;;;;;;2.23;2.00;;;11.70;99.90;;;;;;5085922;28;20439;-69
2023/04/04 12:47:04;;;;;;;4.60;1.80;;;11.80;99.90;;;;;;5076227;28;20429;-72
2023/04/04 12:49:38;;;;;;;2.90;2.23;;;11.80;99.90;;;;;;5073736;28;20897;-72
2023/04/04 12:52:06;;;;;;;3.10;1.97;;;11.80;99.90;;;;;;5072208;28;20430;-70
2023/04/04 12:54:36;;;;;;;2.60;2.00;;;11.70;99.90;;;;;;5084923;28;20499;-70
2023/04/04 12:57:03;;;;;;;2.40;2.30;;;11.70;99.90;;;;;;5092910;28;20405;-73
2023/04/04 12:59:33;;;;;;;2.30;2.10;;;12.00;99.90;;;;;;5093254;28;20962;-72